createdAt,value
2022-11-27T00:01:12.829Z,93.71
2022-11-27T00:03:40.561Z,94.00
2022-11-27T00:06:08.115Z,93.94
2022-11-27T00:08:37.661Z,94.03
2022-11-27T00:11:12.107Z,93.79
2022-11-27T00:13:39.426Z,93.81
2022-11-27T00:16:07.052Z,93.77
2022-11-27T00:18:34.170Z,94.04
2022-11-27T00:21:10.836Z,94.08
2022-11-27T00:23:37.980Z,94.17
2022-11-27T00:26:08.490Z,94.49
2022-11-27T00:28:36.115Z,94.14
2022-11-27T00:31:07.346Z,94.10
2022-11-27T00:33:33.932Z,94.02
2022-11-27T00:36:07.976Z,94.34
2022-11-27T00:38:38.805Z,94.45
2022-11-27T00:41:11.492Z,94.35
2022-11-27T00:43:44.586Z,94.42
2022-11-27T00:46:20.815Z,94.54
2022-11-27T00:48:49.409Z,94.37
2022-11-27T00:51:21.302Z,94.43
2022-11-27T00:53:48.621Z,94.42
2022-11-27T00:56:18.940Z,94.41
2022-11-27T00:58:45.941Z,94.55
2022-11-27T01:01:22.020Z,94.58
2022-11-27T01:03:49.667Z,94.71
2022-11-27T01:06:18.045Z,94.73
2022-11-27T01:08:45.074Z,94.64
2022-11-27T01:11:33.471Z,94.42
2022-11-27T01:14:03.471Z,94.56
2022-11-27T01:16:34.356Z,94.66
2022-11-27T01:19:05.222Z,94.71
2022-11-27T01:21:34.545Z,94.80
2022-11-27T01:24:04.503Z,94.65
2022-11-27T01:26:31.390Z,94.74
2022-11-27T01:28:58.985Z,94.70
2022-11-27T01:31:29.356Z,94.63
2022-11-27T01:34:05.180Z,94.60
2022-11-27T01:36:33.017Z,94.37
2022-11-27T01:39:02.948Z,94.41
2022-11-27T01:41:40.013Z,94.50
2022-11-27T01:44:24.924Z,94.19
2022-11-27T01:47:03.751Z,93.86
2022-11-27T01:49:52.170Z,94.12
2022-11-27T01:52:30.052Z,93.93
2022-11-27T01:55:01.911Z,93.70
2022-11-27T01:57:38.995Z,93.85
2022-11-27T02:00:08.278Z,93.58
2022-11-27T02:02:34.840Z,93.73
2022-11-27T02:05:03.706Z,93.72
2022-11-27T02:07:30.472Z,94.01
2022-11-27T02:09:57.056Z,94.04
2022-11-27T02:12:53.644Z,94.19
2022-11-27T02:15:41.774Z,94.28
2022-11-27T02:18:16.777Z,94.35
2022-11-27T02:20:50.329Z,94.41
2022-11-27T02:23:31.736Z,94.55
2022-11-27T02:26:30.612Z,94.45
2022-11-27T02:29:13.660Z,94.36
2022-11-27T02:31:47.216Z,94.70
2022-11-27T02:34:20.015Z,94.73
2022-11-27T02:36:53.152Z,94.66
2022-11-27T02:39:26.666Z,94.57
2022-11-27T02:42:11.669Z,94.63
2022-11-27T02:44:45.310Z,94.27
2022-11-27T02:47:13.482Z,94.39
2022-11-27T02:49:42.974Z,94.54
2022-11-27T02:52:12.913Z,94.79
2022-11-27T02:54:41.433Z,94.54
2022-11-27T02:57:10.745Z,94.51
2022-11-27T02:59:38.516Z,93.93
2022-11-27T03:02:14.978Z,94.27
2022-11-27T03:04:47.548Z,93.97
2022-11-27T03:07:42.393Z,93.54
2022-11-27T03:10:19.561Z,93.50
2022-11-27T03:12:47.984Z,93.44
2022-11-27T03:15:14.751Z,93.49
2022-11-27T03:17:41.212Z,93.33
2022-11-27T03:20:17.478Z,93.30
2022-11-27T03:22:44.105Z,93.21
2022-11-27T03:25:10.814Z,93.25
2022-11-27T03:27:47.313Z,93.22
2022-11-27T03:30:16.368Z,92.85
2022-11-27T03:32:43.254Z,92.56
2022-11-27T03:35:12.506Z,92.81
2022-11-27T03:37:39.315Z,92.62
2022-11-27T03:40:07.539Z,92.59
2022-11-27T03:42:56.145Z,92.44
2022-11-27T03:45:43.030Z,92.72
2022-11-27T03:48:33.769Z,92.06
2022-11-27T03:51:36.774Z,92.18
2022-11-27T03:54:52.823Z,92.54
2022-11-27T03:57:34.583Z,92.12
2022-11-27T04:00:06.541Z,92.20
2022-11-27T04:02:50.298Z,92.43
2022-11-27T04:05:18.133Z,92.10
2022-11-27T04:07:44.674Z,92.10
2022-11-27T04:10:11.933Z,92.25
2022-11-27T04:12:38.701Z,92.14
2022-11-27T04:15:06.193Z,91.89
2022-11-27T04:17:33.155Z,91.78
2022-11-27T04:19:59.870Z,91.48
2022-11-27T04:22:26.465Z,91.58
2022-11-27T04:24:53.070Z,91.70
2022-11-27T04:27:19.718Z,91.70
2022-11-27T04:29:46.316Z,91.51
2022-11-27T04:32:12.855Z,91.52
2022-11-27T04:34:39.681Z,91.35
2022-11-27T04:37:08.998Z,91.70
2022-11-27T04:39:35.544Z,91.61
2022-11-27T04:42:02.058Z,91.39
2022-11-27T04:44:28.653Z,91.41
2022-11-27T04:46:55.260Z,91.45
2022-11-27T04:49:24.212Z,91.41
2022-11-27T04:51:50.908Z,91.38
2022-11-27T04:54:19.766Z,91.20
2022-11-27T04:56:46.277Z,91.31
2022-11-27T04:59:12.839Z,91.20
2022-11-27T05:01:39.350Z,91.23
2022-11-27T05:04:05.913Z,91.09
2022-11-27T05:06:32.495Z,91.10
2022-11-27T05:09:02.333Z,90.72
2022-11-27T05:11:30.560Z,91.07
2022-11-27T05:14:15.227Z,91.06
2022-11-27T05:16:42.252Z,90.70
2022-11-27T05:19:10.717Z,90.82
2022-11-27T05:21:38.447Z,90.77
2022-11-27T05:24:05.487Z,90.63
2022-11-27T05:26:34.570Z,90.68
2022-11-27T05:29:01.462Z,90.68
2022-11-27T05:31:28.328Z,90.48
2022-11-27T05:33:54.976Z,90.49
2022-11-27T05:36:21.695Z,90.37
2022-11-27T05:38:53.121Z,90.43
2022-11-27T05:41:20.029Z,90.18
2022-11-27T05:43:49.852Z,90.29
2022-11-27T05:46:19.893Z,90.39
2022-11-27T05:48:46.477Z,90.16
2022-11-27T05:51:13.469Z,90.35
2022-11-27T05:53:40.351Z,90.31
2022-11-27T05:56:09.825Z,89.93
2022-11-27T05:58:37.233Z,90.28
2022-11-27T06:01:04.747Z,90.19
2022-11-27T06:03:31.490Z,90.09
2022-11-27T06:05:58.097Z,90.45
2022-11-27T06:08:24.667Z,90.20
2022-11-27T06:10:51.249Z,90.02
2022-11-27T06:13:17.890Z,90.17
2022-11-27T06:15:44.507Z,89.95
2022-11-27T06:18:11.901Z,89.99
2022-11-27T06:20:43.739Z,90.05
2022-11-27T06:23:11.307Z,89.74
2022-11-27T06:25:40.290Z,89.63
2022-11-27T06:28:09.598Z,89.89
2022-11-27T06:30:37.872Z,90.06
2022-11-27T06:33:04.455Z,90.07
2022-11-27T06:35:32.054Z,89.64
2022-11-27T06:37:58.661Z,89.80
2022-11-27T06:40:25.190Z,89.65
2022-11-27T06:42:51.665Z,89.82
2022-11-27T06:45:18.154Z,89.75
2022-11-27T06:47:45.464Z,89.70
2022-11-27T06:50:12.042Z,89.70
2022-11-27T06:52:40.560Z,89.83
2022-11-27T06:55:07.863Z,89.73
2022-11-27T06:57:34.392Z,89.92
2022-11-27T07:00:00.898Z,89.93
2022-11-27T07:02:27.606Z,90.08
2022-11-27T07:04:56.509Z,89.98
2022-11-27T07:07:23.099Z,89.85
2022-11-27T07:09:49.725Z,89.94
2022-11-27T07:12:16.224Z,89.84
2022-11-27T07:14:42.900Z,89.90
2022-11-27T07:17:12.019Z,89.90
2022-11-27T07:19:38.630Z,90.22
2022-11-27T07:22:07.412Z,90.02
2022-11-27T07:24:34.025Z,90.13
2022-11-27T07:27:00.573Z,90.14
2022-11-27T07:29:27.095Z,90.30
2022-11-27T07:31:53.730Z,90.26
2022-11-27T07:34:21.886Z,90.43
2022-11-27T07:36:48.698Z,90.33
2022-11-27T07:39:22.258Z,90.28
2022-11-27T07:42:23.235Z,90.52
2022-11-27T07:44:49.442Z,90.54
2022-11-27T07:47:16.055Z,90.43
2022-11-27T07:49:42.663Z,90.67
2022-11-27T07:52:11.681Z,90.60
2022-11-27T07:54:40.624Z,90.52
2022-11-27T07:57:07.733Z,91.04
2022-11-27T07:59:34.516Z,90.71
2022-11-27T08:02:01.125Z,90.71
2022-11-27T08:04:30.247Z,90.55
2022-11-27T08:06:57.659Z,90.59
2022-11-27T08:09:26.856Z,90.51
2022-11-27T08:11:53.416Z,90.46
2022-11-27T08:14:20.038Z,90.82
2022-11-27T08:16:46.725Z,90.84
2022-11-27T08:19:13.731Z,90.56
2022-11-27T08:21:40.350Z,90.59
2022-11-27T08:24:07.203Z,90.72
2022-11-27T08:26:33.840Z,90.70
2022-11-27T08:29:00.614Z,90.78
2022-11-27T08:31:27.458Z,90.95
2022-11-27T08:33:54.185Z,90.89
2022-11-27T08:36:20.802Z,90.54
2022-11-27T08:38:47.368Z,90.48
2022-11-27T08:41:14.565Z,90.65
2022-11-27T08:43:41.169Z,90.59
2022-11-27T08:46:07.828Z,90.71
2022-11-27T08:48:35.430Z,90.66
2022-11-27T08:51:07.403Z,90.74
2022-11-27T08:53:34.713Z,90.56
2022-11-27T08:56:13.976Z,90.93
2022-11-27T08:58:41.259Z,90.67
2022-11-27T09:01:12.558Z,90.76
2022-11-27T09:03:41.532Z,90.84
2022-11-27T09:06:13.563Z,90.74
2022-11-27T09:08:41.063Z,90.57
2022-11-27T09:11:09.061Z,90.87
2022-11-27T09:13:40.190Z,90.50
2022-11-27T09:16:09.840Z,90.79
2022-11-27T09:18:39.188Z,90.92
2022-11-27T09:21:11.487Z,90.78
2022-11-27T09:23:39.109Z,90.63
2022-11-27T09:26:08.574Z,90.59
2022-11-27T09:28:36.197Z,90.64
2022-11-27T09:31:06.736Z,90.59
2022-11-27T09:33:34.850Z,90.70
2022-11-27T09:36:22.797Z,90.88
2022-11-27T09:38:49.415Z,90.52
2022-11-27T09:41:25.349Z,90.64
2022-11-27T09:43:57.819Z,90.84
2022-11-27T09:46:31.281Z,90.70
2022-11-27T09:49:00.850Z,90.69
2022-11-27T09:51:45.316Z,90.40
2022-11-27T09:54:30.611Z,90.47
2022-11-27T09:56:58.715Z,90.44
2022-11-27T09:59:36.371Z,90.49
2022-11-27T10:02:03.017Z,90.47
2022-11-27T10:04:39.864Z,90.39
2022-11-27T10:07:25.462Z,90.53
2022-11-27T10:10:07.345Z,90.51
2022-11-27T10:12:58.429Z,90.23
2022-11-27T10:15:31.180Z,90.41
2022-11-27T10:18:13.177Z,89.96
2022-11-27T10:20:54.397Z,91.70
2022-11-27T10:23:49.324Z,90.47
2022-11-27T10:26:29.235Z,90.28
2022-11-27T10:29:03.195Z,89.93
2022-11-27T10:31:38.756Z,90.04
2022-11-27T10:34:26.786Z,89.85
2022-11-27T10:36:56.117Z,89.77
2022-11-27T10:39:41.173Z,90.32
2022-11-27T10:42:25.996Z,90.13
2022-11-27T10:45:04.958Z,89.97
2022-11-27T10:47:33.876Z,90.09
2022-11-27T10:50:02.066Z,90.30
2022-11-27T10:52:28.945Z,90.29
2022-11-27T10:55:16.401Z,90.45
2022-11-27T10:58:00.966Z,90.09
2022-11-27T11:00:28.042Z,90.09
2022-11-27T11:03:03.855Z,90.31
2022-11-27T11:05:50.609Z,90.19
2022-11-27T11:08:20.850Z,90.12
2022-11-27T11:11:03.542Z,90.07
2022-11-27T11:13:43.655Z,90.26
2022-11-27T11:16:24.348Z,90.37
2022-11-27T11:18:53.228Z,90.37
2022-11-27T11:21:35.190Z,90.25
2022-11-27T11:24:03.323Z,90.00
2022-11-27T11:26:38.478Z,90.06
2022-11-27T11:29:19.887Z,90.13
2022-11-27T11:31:48.921Z,90.36
2022-11-27T11:34:27.271Z,90.28
2022-11-27T11:37:08.327Z,90.53
2022-11-27T11:39:47.655Z,90.54
2022-11-27T11:42:23.560Z,90.50
2022-11-27T11:44:56.188Z,89.86
2022-11-27T11:47:25.250Z,89.82
2022-11-27T11:49:53.890Z,90.12
2022-11-27T11:52:55.187Z,89.70
2022-11-27T11:55:51.694Z,89.70
2022-11-27T11:58:50.978Z,89.42
2022-11-27T12:01:46.781Z,89.65
2022-11-27T12:04:25.072Z,89.74
2022-11-27T12:07:08.798Z,89.33
2022-11-27T12:09:51.081Z,89.78
2022-11-27T12:12:42.015Z,89.43
2022-11-27T12:15:11.466Z,89.24
2022-11-27T12:17:58.822Z,89.50
2022-11-27T12:20:34.520Z,89.08
2022-11-27T12:23:31.955Z,89.71
2022-11-27T12:26:15.831Z,89.16
2022-11-27T12:29:10.611Z,89.17
2022-11-27T12:32:19.616Z,89.80
2022-11-27T12:35:03.093Z,89.57
2022-11-27T12:37:55.463Z,89.57
2022-11-27T12:40:25.108Z,89.67
2022-11-27T12:43:20.587Z,89.70
2022-11-27T12:46:01.793Z,89.88
2022-11-27T12:48:53.719Z,89.49
2022-11-27T12:51:44.419Z,89.80
2022-11-27T12:55:09.179Z,89.52
2022-11-27T12:58:14.653Z,89.84
2022-11-27T13:00:44.862Z,89.44
2022-11-27T13:04:07.604Z,89.88
2022-11-27T13:07:12.314Z,89.66
2022-11-27T13:09:50.822Z,89.60
2022-11-27T13:12:27.165Z,89.89
2022-11-27T13:15:02.816Z,89.75
2022-11-27T13:17:42.692Z,89.87
2022-11-27T13:20:20.536Z,89.95
2022-11-27T13:22:48.079Z,89.66
2022-11-27T13:25:15.203Z,89.94
2022-11-27T13:27:46.757Z,89.84
2022-11-27T13:30:22.735Z,89.87
2022-11-27T13:33:01.830Z,89.19
2022-11-27T13:35:40.519Z,89.61
2022-11-27T13:38:09.393Z,89.84
2022-11-27T13:40:46.536Z,89.22
2022-11-27T13:43:43.562Z,89.43
2022-11-27T13:46:20.175Z,89.80
2022-11-27T13:48:56.446Z,89.90
2022-11-27T13:51:43.500Z,89.81
2022-11-27T13:54:22.234Z,89.90
2022-11-27T13:56:51.176Z,89.47
2022-11-27T13:59:21.444Z,89.90
2022-11-27T14:02:01.476Z,89.84
2022-11-27T14:04:30.951Z,90.19
2022-11-27T14:07:08.076Z,90.56
2022-11-27T14:09:47.380Z,90.46
2022-11-27T14:12:33.552Z,90.88
2022-11-27T14:15:18.616Z,90.51
2022-11-27T14:17:47.716Z,90.51
2022-11-27T14:20:17.553Z,90.73
2022-11-27T14:23:12.739Z,90.76
2022-11-27T14:25:40.589Z,90.48
2022-11-27T14:28:15.765Z,90.41
2022-11-27T14:30:49.580Z,90.84
2022-11-27T14:33:47.393Z,90.82
2022-11-27T14:36:24.958Z,90.64
2022-11-27T14:38:52.242Z,90.77
2022-11-27T14:42:04.262Z,90.74
2022-11-27T14:44:32.106Z,90.55
2022-11-27T14:47:02.253Z,90.65
2022-11-27T14:49:31.667Z,90.36
2022-11-27T14:52:05.858Z,90.45
2022-11-27T14:54:35.630Z,90.73
2022-11-27T14:57:02.543Z,90.75
2022-11-27T14:59:29.343Z,91.00
2022-11-27T15:02:29.094Z,91.08
2022-11-27T15:05:05.462Z,90.59
2022-11-27T15:07:41.934Z,90.64
2022-11-27T15:10:22.987Z,90.81
2022-11-27T15:12:51.036Z,91.08
2022-11-27T15:15:23.728Z,90.50
2022-11-27T15:18:00.310Z,90.52
2022-11-27T15:20:34.659Z,90.96
2022-11-27T15:23:06.535Z,90.61
2022-11-27T15:25:43.921Z,90.90
2022-11-27T15:28:28.475Z,90.57
2022-11-27T15:30:56.154Z,90.89
2022-11-27T15:33:31.869Z,91.01
2022-11-27T15:36:21.016Z,90.88
2022-11-27T15:38:50.885Z,90.80
2022-11-27T15:41:27.796Z,90.65
2022-11-27T15:43:55.665Z,90.61
2022-11-27T15:46:30.322Z,90.48
2022-11-27T15:48:59.357Z,90.88
2022-11-27T15:51:26.171Z,90.65
2022-11-27T15:53:53.052Z,90.49
2022-11-27T15:56:22.547Z,90.58
2022-11-27T15:58:49.327Z,90.79
2022-11-27T16:01:16.008Z,90.44
2022-11-27T16:03:45.132Z,90.79
2022-11-27T16:06:14.237Z,90.20
2022-11-27T16:08:40.809Z,90.43
2022-11-27T16:11:14.821Z,90.34
2022-11-27T16:13:41.341Z,90.47
2022-11-27T16:16:08.915Z,90.16
2022-11-27T16:18:35.622Z,90.60
2022-11-27T16:21:07.756Z,90.32
2022-11-27T16:23:38.435Z,90.55
2022-11-27T16:26:08.345Z,90.54
2022-11-27T16:28:37.545Z,90.61
2022-11-27T16:31:08.534Z,90.22
2022-11-27T16:33:35.126Z,90.48
2022-11-27T16:36:12.608Z,90.41
2022-11-27T16:38:42.378Z,90.27
2022-11-27T16:41:17.700Z,90.13
2022-11-27T16:43:47.051Z,90.49
2022-11-27T16:46:17.311Z,90.31
2022-11-27T16:48:44.736Z,90.36
2022-11-27T16:51:17.590Z,90.36
2022-11-27T16:53:46.651Z,90.10
2022-11-27T16:56:15.271Z,89.83
2022-11-27T16:58:43.761Z,90.33
2022-11-27T17:01:18.257Z,90.39
2022-11-27T17:03:44.807Z,90.11
2022-11-27T17:06:14.636Z,90.21
2022-11-27T17:08:41.618Z,89.94
2022-11-27T17:11:13.174Z,90.57
2022-11-27T17:13:44.830Z,90.29
2022-11-27T17:16:11.591Z,90.68
2022-11-27T17:18:39.958Z,89.82
2022-11-27T17:21:34.406Z,90.36
2022-11-27T17:24:04.303Z,90.39
2022-11-27T17:26:35.312Z,89.35
2022-11-27T17:29:03.546Z,90.34
2022-11-27T17:31:37.108Z,90.15
2022-11-27T17:34:05.547Z,89.94
2022-11-27T17:36:36.774Z,89.85
2022-11-27T17:39:05.854Z,90.37
2022-11-27T17:41:32.810Z,90.35
2022-11-27T17:43:59.630Z,90.40
2022-11-27T17:46:29.304Z,90.36
2022-11-27T17:48:59.081Z,90.33
2022-11-27T17:51:26.465Z,90.45
2022-11-27T17:53:53.265Z,90.44
2022-11-27T17:56:21.023Z,90.55
2022-11-27T17:58:50.294Z,90.23
2022-11-27T18:01:20.249Z,90.47
2022-11-27T18:03:47.414Z,90.67
2022-11-27T18:06:15.586Z,90.60
2022-11-27T18:08:42.674Z,90.66
2022-11-27T18:11:15.371Z,90.67
2022-11-27T18:13:42.124Z,90.43
2022-11-27T18:16:11.612Z,90.96
2022-11-27T18:18:39.132Z,90.55
2022-11-27T18:21:16.701Z,90.58
2022-11-27T18:24:14.549Z,90.94
2022-11-27T18:26:52.665Z,90.76
2022-11-27T18:29:18.639Z,90.82
2022-11-27T18:31:46.731Z,90.78
2022-11-27T18:34:13.348Z,90.89
2022-11-27T18:36:39.934Z,91.08
2022-11-27T18:39:08.794Z,91.40
2022-11-27T18:41:40.807Z,91.74
2022-11-27T18:44:07.911Z,91.30
2022-11-27T18:46:34.629Z,91.30
2022-11-27T18:49:01.325Z,91.32
2022-11-27T18:51:27.904Z,91.85
2022-11-27T18:53:56.012Z,91.81
2022-11-27T18:56:25.025Z,91.80
2022-11-27T18:58:54.668Z,91.55
2022-11-27T19:01:24.638Z,91.89
2022-11-27T19:03:51.802Z,91.84
2022-11-27T19:06:20.561Z,91.76
2022-11-27T19:08:49.475Z,92.03
2022-11-27T19:11:21.964Z,92.04
2022-11-27T19:13:49.832Z,92.10
2022-11-27T19:16:22.648Z,92.17
2022-11-27T19:18:49.730Z,91.99
2022-11-27T19:21:21.481Z,92.31
2022-11-27T19:23:51.849Z,92.26
2022-11-27T19:26:24.043Z,92.58
2022-11-27T19:28:52.272Z,91.93
2022-11-27T19:31:19.901Z,92.41
2022-11-27T19:33:52.466Z,92.55
2022-11-27T19:36:19.196Z,92.31
2022-11-27T19:38:45.733Z,92.38
2022-11-27T19:41:14.933Z,92.47
2022-11-27T19:43:41.916Z,92.71
2022-11-27T19:46:19.826Z,92.40
2022-11-27T19:48:47.025Z,92.61
2022-11-27T19:51:14.167Z,92.40
2022-11-27T19:53:41.899Z,92.84
2022-11-27T19:56:10.015Z,93.07
2022-11-27T19:58:37.364Z,92.56
2022-11-27T20:01:09.193Z,92.97
2022-11-27T20:03:36.101Z,92.92
2022-11-27T20:06:08.164Z,92.62
2022-11-27T20:08:35.388Z,92.93
2022-11-27T20:11:02.647Z,92.71
2022-11-27T20:13:31.674Z,93.09
2022-11-27T20:15:58.332Z,93.01
2022-11-27T20:18:26.070Z,93.11
2022-11-27T20:20:52.685Z,93.04
2022-11-27T20:23:19.219Z,93.23
2022-11-27T20:25:49.412Z,93.23
2022-11-27T20:28:16.003Z,93.10
2022-11-27T20:30:44.789Z,93.33
2022-11-27T20:33:13.143Z,93.18
2022-11-27T20:35:42.928Z,93.00
2022-11-27T20:38:09.478Z,93.01
2022-11-27T20:40:38.749Z,93.08
2022-11-27T20:43:05.317Z,93.37
2022-11-27T20:45:36.212Z,93.41
2022-11-27T20:48:02.907Z,93.22
2022-11-27T20:50:31.812Z,93.34
2022-11-27T20:53:00.861Z,93.11
2022-11-27T20:55:27.485Z,93.49
2022-11-27T20:57:56.500Z,93.06
2022-11-27T21:00:25.904Z,93.45
2022-11-27T21:02:52.424Z,93.60
2022-11-27T21:05:20.118Z,93.14
2022-11-27T21:07:46.805Z,93.53
2022-11-27T21:10:15.520Z,93.37
2022-11-27T21:12:42.113Z,93.18
2022-11-27T21:15:09.288Z,93.16
2022-11-27T21:17:36.010Z,93.39
2022-11-27T21:20:04.112Z,93.46
2022-11-27T21:22:31.590Z,93.60
2022-11-27T21:24:58.119Z,93.74
2022-11-27T21:27:24.761Z,93.66
2022-11-27T21:29:51.367Z,93.62
2022-11-27T21:32:18.263Z,93.75
2022-11-27T21:34:44.974Z,93.47
2022-11-27T21:37:13.766Z,93.68
2022-11-27T21:39:41.275Z,93.55
2022-11-27T21:42:08.478Z,93.43
2022-11-27T21:44:35.064Z,93.42
2022-11-27T21:47:01.644Z,93.49
2022-11-27T21:49:28.250Z,93.71
2022-11-27T21:51:54.985Z,93.86
2022-11-27T21:54:22.359Z,93.78
2022-11-27T21:56:51.661Z,93.86
2022-11-27T21:59:18.387Z,93.73
2022-11-27T22:01:45.726Z,93.53
2022-11-27T22:04:12.741Z,93.51
2022-11-27T22:06:41.828Z,93.67
2022-11-27T22:09:14.700Z,93.53
2022-11-27T22:11:42.653Z,93.75
2022-11-27T22:14:09.681Z,93.50
2022-11-27T22:16:44.390Z,93.49
2022-11-27T22:19:11.724Z,93.72
2022-11-27T22:21:38.294Z,93.67
2022-11-27T22:24:04.990Z,93.87
2022-11-27T22:26:34.039Z,93.66
2022-11-27T22:29:00.577Z,93.81
2022-11-27T22:31:29.914Z,93.79
2022-11-27T22:33:57.399Z,93.61
2022-11-27T22:36:32.726Z,94.05
2022-11-27T22:39:08.901Z,93.64
2022-11-27T22:41:37.116Z,93.55
2022-11-27T22:44:15.222Z,93.63
2022-11-27T22:46:42.438Z,93.66
2022-11-27T22:49:11.162Z,93.86
2022-11-27T22:51:38.253Z,93.61
2022-11-27T22:54:06.563Z,93.78
2022-11-27T22:56:36.640Z,93.69
2022-11-27T22:59:31.775Z,93.55
2022-11-27T23:01:54.190Z,93.83
2022-11-27T23:04:20.822Z,93.79
2022-11-27T23:06:50.377Z,93.78
2022-11-27T23:09:18.852Z,93.81
2022-11-27T23:11:45.978Z,93.71
2022-11-27T23:14:12.661Z,93.54
2022-11-27T23:16:41.595Z,93.46
2022-11-27T23:19:11.193Z,93.89
2022-11-27T23:21:38.892Z,93.83
2022-11-27T23:24:09.799Z,94.06
2022-11-27T23:26:39.006Z,93.84
2022-11-27T23:29:05.602Z,93.59
2022-11-27T23:31:35.336Z,93.84
2022-11-27T23:34:07.293Z,93.80
2022-11-27T23:36:34.787Z,93.75
2022-11-27T23:39:04.091Z,93.61
2022-11-27T23:41:31.403Z,93.68
2022-11-27T23:43:58.371Z,93.65
2022-11-27T23:46:27.164Z,93.51
2022-11-27T23:48:55.677Z,93.68
2022-11-27T23:51:27.412Z,93.30
2022-11-27T23:53:54.498Z,92.96
2022-11-27T23:56:24.048Z,92.96
2022-11-27T23:58:50.614Z,92.92
